Corpus Christi, TX

09:58 CST le 20 février 2017 (GMT -0600)
Corpus Christi International | | Change Station

Alt. 43 ft 27.77 °N, 97.50 °W | Updated 7 minutes ago

Pluie
Pluie
64 ° F
Paraît 64 ° F
N
8
Vent Variable Vent de ENE

Aujourd'hui
Haut(e) -- | Bas -- ° F
--% Risque de précip.
Hier
Haut(e) -- | Bas -- ° F
Precip. -- pouce
Pression 30.02 pouce
Visibilité 10.0 Miles terrestres
Nuages Nuages épars 900 ft
Nuageux 6000 ft
Couvert 11000 ft
Point de rosée 63 ° F
Humidité 96%
Précipitations 1.79 pouce
Profondeur de la couche neigeuse Non disponible.
7:02 AM 6:24 PM
Lune descendante, 33% visible
METAR KCRP 201551Z 07007KT 10SM -RA SCT009 BKN060 OVC110 18/17 A3002 RMK AO2 SLP165 P0000 T01780172 $
Pression 30.02 pouce
Visibilité 10.0 Miles terrestres
Nuages Nuages épars 900 ft
Nuageux 6000 ft
Couvert 11000 ft
Point de rosée 63 ° F
Humidité 96%
Précipitations 1.79 pouce
Profondeur de la couche neigeuse Non disponible.
7:02 AM 6:24 PM
Lune descendante, 33% visible
METAR KCRP 201551Z 07007KT 10SM -RA SCT009 BKN060 OVC110 18/17 A3002 RMK AO2 SLP165 P0000 T01780172 $

Get Your Daily Forecast Email!

Thanks for signing up!

Be on the lookout for a verification email in your inbox.

You'll start receiving the daily forecast at 8 AM.

×

10-Day Weather Forecast

Almanac

Astronomie

Feb. 20, 2017 Lever Coucher
Temps réel
Crépuscule civil
Crépuscule nautique
Crépuscule astronomique
Lune
Durée de lumière visible
Longueur du jour
Tomorrow will be .
, % of the Moon is Illuminated

Extrêmes aujourd'hui

State Highs State Lows

Community

WunderPhotos

Upload Photos

1,962,540 Photos téléchargées !

WunderBlog® & News

Nearby

Qualité de l'air

  Qualité de l'air Indice de la qualité de l'air Polluant
Not available.

Épaisseur de neige

Station Depth Altitude

Activité sismique

Ville Distance Mag. Time & Date
Minimum magnitude displayed is 2.5.

Températures des eaux côtières

Lieu Température

Stations

Stations météo à proximité

Emplacement de la station Température Refroidissement éolien Point de rosée Humidité Vent Precip. Alt. Mise à jour Type
                   

Watches & Warnings

There are currently no watches in effect.